createdAt,value
2022-10-19T00:00:04.578Z,19.77
2022-10-19T00:02:30.840Z,9.77
2022-10-19T00:04:57.195Z,10.88
2022-10-19T00:07:23.450Z,13.80
2022-10-19T00:09:49.837Z,10.68
2022-10-19T00:12:16.209Z,11.48
2022-10-19T00:14:42.498Z,18.25
2022-10-19T00:17:08.779Z,8.80
2022-10-19T00:19:35.051Z,8.77
2022-10-19T00:22:01.382Z,8.50
2022-10-19T00:24:27.716Z,7.25
2022-10-19T00:26:53.977Z,11.02
2022-10-19T00:29:20.240Z,12.95
2022-10-19T00:31:48.648Z,14.52
2022-10-19T00:34:14.913Z,8.77
2022-10-19T00:36:41.766Z,12.50
2022-10-19T00:39:10.534Z,8.23
2022-10-19T00:41:37.273Z,6.80
2022-10-19T00:44:08.191Z,7.70
2022-10-19T00:46:35.680Z,17.23
2022-10-19T00:51:29.412Z,10.02
2022-10-19T00:53:56.272Z,9.75
2022-10-19T00:56:23.246Z,18.67
2022-10-19T00:58:49.602Z,44.00
2022-10-19T01:01:17.606Z,37.53
2022-10-19T01:03:44.610Z,13.18
2022-10-19T01:06:11.932Z,17.35
2022-10-19T01:08:38.199Z,23.48
2022-10-19T01:11:11.700Z,40.28
2022-10-19T01:13:38.165Z,19.67
2022-10-19T01:16:20.757Z,17.17
2022-10-19T01:18:47.048Z,10.75
2022-10-19T01:21:21.773Z,12.77
2022-10-19T01:23:51.038Z,11.98
2022-10-19T01:26:36.590Z,10.18
2022-10-19T01:29:10.528Z,16.58
2022-10-19T01:31:42.621Z,19.52
2022-10-19T01:34:15.076Z,17.38
2022-10-19T01:36:44.067Z,14.05
2022-10-19T01:39:11.350Z,19.85
2022-10-19T01:41:37.645Z,26.70
2022-10-19T01:44:22.744Z,33.75
2022-10-19T01:46:54.775Z,18.30
2022-10-19T01:49:30.256Z,9.88
2022-10-19T01:54:33.134Z,53.30
2022-10-19T01:57:00.115Z,22.70
2022-10-19T01:59:26.395Z,74.13
2022-10-19T02:01:53.682Z,64.60
2022-10-19T02:04:21.198Z,34.47
2022-10-19T02:09:18.178Z,39.85
2022-10-19T02:11:49.045Z,27.38
2022-10-19T02:14:18.368Z,14.93
2022-10-19T02:16:47.314Z,13.80
2022-10-19T02:19:15.402Z,24.27
2022-10-19T02:21:41.921Z,13.45
2022-10-19T02:24:08.193Z,21.45
2022-10-19T02:26:34.710Z,20.42
2022-10-19T02:29:01.101Z,63.50
2022-10-19T02:31:27.443Z,31.30
2022-10-19T02:33:53.824Z,22.73
2022-10-19T02:36:20.445Z,29.85
2022-10-19T02:38:46.799Z,20.83
2022-10-19T02:41:32.525Z,15.07
2022-10-19T02:44:01.377Z,36.55
2022-10-19T02:46:27.649Z,13.13
2022-10-19T02:48:55.028Z,14.13
2022-10-19T02:51:28.492Z,14.05
2022-10-19T02:53:54.796Z,33.38
2022-10-19T02:56:21.106Z,30.13
2022-10-19T02:58:47.420Z,29.10
2022-10-19T03:01:14.645Z,15.07
2022-10-19T03:03:40.987Z,16.58
2022-10-19T03:06:07.255Z,37.72
2022-10-19T03:08:33.579Z,50.10
2022-10-19T03:10:59.881Z,31.73
2022-10-19T03:13:26.122Z,30.02
2022-10-19T03:15:52.503Z,26.55
2022-10-19T03:18:18.834Z,26.65
2022-10-19T03:20:45.101Z,28.40
2022-10-19T03:23:11.394Z,32.30
2022-10-19T03:25:37.652Z,42.47
2022-10-19T03:28:04.026Z,34.08
2022-10-19T03:30:30.257Z,17.60
2022-10-19T03:32:56.536Z,24.80
2022-10-19T03:35:22.797Z,26.98
2022-10-19T03:37:49.031Z,39.70
2022-10-19T03:40:15.421Z,55.95
2022-10-19T03:42:41.665Z,23.20
2022-10-19T03:45:08.093Z,53.15
2022-10-19T03:47:34.477Z,64.00
2022-10-19T03:50:00.922Z,50.00
2022-10-19T03:52:27.380Z,28.65
2022-10-19T03:54:53.693Z,14.48
2022-10-19T03:57:19.996Z,25.02
2022-10-19T03:59:46.300Z,25.38
2022-10-19T04:02:12.532Z,36.08
2022-10-19T04:04:38.776Z,54.85
2022-10-19T04:07:05.062Z,20.52
2022-10-19T04:09:31.348Z,17.05
2022-10-19T04:11:57.631Z,26.92
2022-10-19T04:14:32.843Z,9.77
2022-10-19T04:17:00.188Z,14.38
2022-10-19T04:19:26.445Z,9.15
2022-10-19T04:21:52.795Z,9.48
2022-10-19T04:24:19.287Z,19.60
2022-10-19T04:26:46.615Z,7.72
2022-10-19T04:29:13.269Z,7.68
2022-10-19T04:31:39.807Z,7.28
2022-10-19T04:34:06.549Z,7.30
2022-10-19T04:36:32.894Z,9.03
2022-10-19T04:38:59.413Z,9.13
2022-10-19T04:41:25.887Z,8.23
2022-10-19T04:43:56.556Z,8.75
2022-10-19T04:46:23.110Z,9.82
2022-10-19T04:48:49.769Z,8.02
2022-10-19T04:51:16.554Z,9.90
2022-10-19T04:53:43.764Z,18.30
2022-10-19T04:56:12.334Z,8.93
2022-10-19T04:58:38.600Z,9.30
2022-10-19T05:01:12.041Z,8.77
2022-10-19T05:03:38.713Z,8.00
2022-10-19T05:06:05.131Z,10.02
2022-10-19T05:08:31.450Z,8.60
2022-10-19T05:11:01.907Z,10.10
2022-10-19T05:13:28.377Z,10.63
2022-10-19T05:15:55.290Z,10.68
2022-10-19T05:18:21.575Z,13.40
2022-10-19T05:20:47.878Z,7.70
2022-10-19T05:23:14.191Z,17.98
2022-10-19T05:25:40.460Z,10.77
2022-10-19T05:28:06.803Z,8.93
2022-10-19T05:30:33.085Z,9.50
2022-10-19T05:32:59.325Z,7.78
2022-10-19T05:35:26.062Z,8.10
2022-10-19T05:37:55.307Z,15.87
2022-10-19T05:40:21.645Z,9.18
2022-10-19T05:42:47.931Z,9.52
2022-10-19T05:45:14.237Z,8.40
2022-10-19T05:47:40.542Z,8.45
2022-10-19T05:50:06.987Z,10.38
2022-10-19T05:52:33.257Z,10.43
2022-10-19T05:54:59.508Z,8.68
2022-10-19T05:57:25.861Z,14.77
2022-10-19T05:59:52.152Z,20.58
2022-10-19T06:02:18.446Z,15.88
2022-10-19T06:04:44.705Z,20.13
2022-10-19T06:07:11.037Z,12.52
2022-10-19T06:09:37.413Z,9.88
2022-10-19T06:12:03.753Z,11.50
2022-10-19T06:14:30.039Z,16.73
2022-10-19T06:16:56.300Z,12.98
2022-10-19T06:19:22.549Z,10.57
2022-10-19T06:21:48.844Z,9.05
2022-10-19T06:24:15.116Z,8.95
2022-10-19T06:26:41.653Z,13.38
2022-10-19T06:29:07.951Z,9.68
2022-10-19T06:31:35.337Z,8.82
2022-10-19T06:34:01.904Z,9.10
2022-10-19T06:36:29.395Z,11.30
2022-10-19T06:38:56.683Z,13.00
2022-10-19T06:41:23.176Z,11.60
2022-10-19T06:43:52.824Z,10.68
2022-10-19T06:46:20.617Z,8.90
2022-10-19T06:48:50.877Z,9.30
2022-10-19T06:51:17.341Z,9.30
2022-10-19T06:53:43.580Z,8.15
2022-10-19T06:56:10.126Z,11.15
2022-10-19T06:58:37.059Z,10.40
2022-10-19T07:01:03.913Z,8.50
2022-10-19T07:03:30.759Z,8.52
2022-10-19T07:05:58.217Z,15.73
2022-10-19T07:08:25.132Z,7.50
2022-10-19T07:10:51.818Z,8.07
2022-10-19T07:13:18.283Z,8.47
2022-10-19T07:15:44.525Z,10.13
2022-10-19T07:18:10.937Z,9.82
2022-10-19T07:20:37.205Z,9.43
2022-10-19T07:23:03.494Z,9.85
2022-10-19T07:25:30.533Z,11.55
2022-10-19T07:27:57.004Z,8.35
2022-10-19T07:30:23.676Z,10.23
2022-10-19T07:32:49.974Z,10.73
2022-10-19T07:35:16.248Z,9.18
2022-10-19T07:37:42.476Z,13.80
2022-10-19T07:40:09.030Z,10.25
2022-10-19T07:42:37.630Z,10.25
2022-10-19T07:45:04.052Z,11.55
2022-10-19T07:47:30.407Z,10.38
2022-10-19T07:49:56.668Z,10.48
2022-10-19T07:52:22.955Z,9.30
2022-10-19T07:54:49.578Z,8.48
2022-10-19T07:57:16.119Z,11.53
2022-10-19T07:59:42.367Z,24.95
2022-10-19T08:02:16.802Z,13.23
2022-10-19T08:04:59.836Z,14.23
2022-10-19T08:07:28.266Z,19.65
2022-10-19T08:09:55.603Z,12.13
2022-10-19T08:12:21.969Z,9.93
2022-10-19T08:14:48.303Z,15.63
2022-10-19T08:17:17.385Z,10.52
2022-10-19T08:19:47.261Z,12.40
2022-10-19T08:22:13.658Z,16.88
2022-10-19T08:24:39.950Z,16.52
2022-10-19T08:27:06.239Z,13.95
2022-10-19T08:29:32.528Z,15.55
2022-10-19T08:31:59.225Z,12.38
2022-10-19T08:34:25.537Z,11.68
2022-10-19T08:36:51.785Z,12.68
2022-10-19T08:39:18.247Z,10.93
2022-10-19T08:41:55.715Z,14.38
2022-10-19T08:44:22.007Z,16.75
2022-10-19T08:46:48.246Z,10.63
2022-10-19T08:49:17.321Z,16.70
2022-10-19T08:51:44.733Z,14.48
2022-10-19T08:56:51.971Z,15.77
2022-10-19T08:59:30.556Z,9.57
2022-10-19T09:01:58.011Z,8.82
2022-10-19T09:07:07.805Z,14.73
2022-10-19T09:09:42.739Z,6.47
2022-10-19T09:12:12.130Z,16.73
2022-10-19T09:14:40.856Z,8.60
2022-10-19T09:17:11.960Z,12.23
2022-10-19T09:19:38.482Z,12.80
2022-10-19T09:22:08.494Z,8.97
2022-10-19T09:24:49.001Z,8.70
2022-10-19T09:27:18.792Z,8.02
2022-10-19T09:29:47.975Z,11.90
2022-10-19T09:32:19.211Z,11.73
2022-10-19T09:34:48.634Z,6.85
2022-10-19T09:37:23.286Z,5.78
2022-10-19T09:39:54.014Z,7.63
2022-10-19T09:42:24.132Z,11.93
2022-10-19T09:44:51.957Z,7.95
2022-10-19T09:47:25.500Z,9.18
2022-10-19T09:50:05.023Z,10.13
2022-10-19T09:52:31.253Z,8.02
2022-10-19T09:55:04.574Z,4.85
2022-10-19T09:57:31.117Z,9.85
2022-10-19T09:59:57.524Z,8.10
2022-10-19T10:02:31.569Z,8.88
2022-10-19T10:05:13.227Z,6.60
2022-10-19T10:07:39.929Z,15.23
2022-10-19T10:10:20.199Z,12.23
2022-10-19T10:12:47.365Z,11.25
2022-10-19T10:15:17.760Z,8.85
2022-10-19T10:17:46.139Z,6.40
2022-10-19T10:20:32.549Z,6.40
2022-10-19T10:23:03.533Z,8.95
2022-10-19T10:25:31.845Z,7.05
2022-10-19T10:28:02.421Z,4.32
2022-10-19T10:30:34.077Z,6.63
2022-10-19T10:33:09.259Z,11.68
2022-10-19T10:35:49.137Z,11.15
2022-10-19T10:38:18.087Z,4.88
2022-10-19T10:40:52.098Z,5.97
2022-10-19T10:43:20.395Z,5.53
2022-10-19T10:45:52.895Z,5.60
2022-10-19T10:48:21.908Z,7.32
2022-10-19T10:50:48.522Z,5.22
2022-10-19T10:53:43.864Z,13.80
2022-10-19T10:56:40.995Z,10.18
2022-10-19T10:59:19.413Z,8.43
2022-10-19T11:01:53.414Z,8.32
2022-10-19T11:04:23.612Z,9.23
2022-10-19T11:06:55.643Z,5.32
2022-10-19T11:09:25.938Z,8.80
2022-10-19T11:11:55.950Z,8.80
2022-10-19T11:14:23.230Z,9.77
2022-10-19T11:16:51.159Z,12.43
2022-10-19T11:19:19.167Z,10.52
2022-10-19T11:21:48.505Z,9.23
2022-10-19T11:24:22.747Z,10.23
2022-10-19T11:26:59.089Z,9.30
2022-10-19T11:29:25.372Z,7.22
2022-10-19T11:31:53.834Z,5.28
2022-10-19T11:34:25.242Z,8.05
2022-10-19T11:37:02.808Z,9.65
2022-10-19T11:39:40.301Z,9.13
2022-10-19T11:42:13.718Z,9.15
2022-10-19T11:45:05.660Z,10.30
2022-10-19T11:47:51.997Z,6.75
2022-10-19T11:50:32.156Z,8.52
2022-10-19T11:53:04.861Z,7.70
2022-10-19T11:55:44.269Z,9.00
2022-10-19T11:58:10.536Z,10.30
2022-10-19T12:00:42.780Z,8.35
2022-10-19T12:03:15.348Z,9.27
2022-10-19T12:05:47.669Z,7.97
2022-10-19T12:08:13.981Z,9.00
2022-10-19T12:10:46.540Z,7.32
2022-10-19T12:13:15.375Z,8.93
2022-10-19T12:15:43.326Z,6.60
2022-10-19T12:18:26.913Z,7.93
2022-10-19T12:20:54.922Z,8.40
2022-10-19T12:23:24.555Z,7.35
2022-10-19T12:25:51.332Z,6.32
2022-10-19T12:28:21.473Z,6.28
2022-10-19T12:30:48.027Z,9.15
2022-10-19T12:33:22.627Z,7.25
2022-10-19T12:36:07.511Z,9.63
2022-10-19T12:38:34.181Z,5.93
2022-10-19T12:43:33.293Z,10.45
2022-10-19T12:46:06.131Z,6.78
2022-10-19T12:48:32.389Z,5.75
2022-10-19T12:51:00.882Z,6.50
2022-10-19T12:53:30.508Z,4.18
2022-10-19T12:56:04.939Z,7.75
2022-10-19T12:58:44.988Z,7.63
2022-10-19T13:01:20.964Z,10.05
2022-10-19T13:03:48.580Z,7.07
2022-10-19T13:06:23.837Z,4.10
2022-10-19T13:08:53.270Z,10.05
2022-10-19T13:11:19.868Z,3.30
2022-10-19T13:16:45.765Z,6.30
2022-10-19T13:19:12.039Z,5.00
2022-10-19T13:21:52.111Z,6.75
2022-10-19T13:24:24.119Z,9.25
2022-10-19T13:26:59.558Z,7.57
2022-10-19T13:29:26.702Z,6.78
2022-10-19T13:31:53.017Z,5.05
2022-10-19T13:34:19.551Z,9.05
2022-10-19T13:39:13.132Z,7.32
2022-10-19T13:41:47.027Z,7.05
2022-10-19T13:44:14.285Z,5.97
2022-10-19T13:47:00.393Z,7.40
2022-10-19T13:49:28.978Z,10.00
2022-10-19T13:52:07.234Z,8.75
2022-10-19T13:54:42.629Z,6.05
2022-10-19T13:57:18.076Z,12.10
2022-10-19T14:00:07.196Z,7.82
2022-10-19T14:02:52.092Z,6.57
2022-10-19T14:05:18.334Z,4.13
2022-10-19T14:07:50.042Z,11.82
2022-10-19T14:10:17.552Z,4.47
2022-10-19T14:12:44.825Z,7.32
2022-10-19T14:15:28.086Z,6.93
2022-10-19T14:17:54.966Z,7.22
2022-10-19T14:20:30.491Z,7.70
2022-10-19T14:22:57.281Z,9.10
2022-10-19T14:25:27.846Z,7.68
2022-10-19T14:27:58.262Z,8.82
2022-10-19T14:30:26.357Z,5.22
2022-10-19T14:32:55.725Z,5.68
2022-10-19T14:35:26.635Z,20.55
2022-10-19T14:37:52.957Z,6.75
2022-10-19T14:40:26.855Z,7.63
2022-10-19T14:42:57.208Z,6.10
2022-10-19T14:45:25.405Z,7.13
2022-10-19T14:47:53.600Z,7.35
2022-10-19T14:50:21.243Z,6.18
2022-10-19T14:52:48.524Z,7.75
2022-10-19T14:55:17.856Z,8.38
2022-10-19T14:57:46.482Z,11.00
2022-10-19T15:00:32.669Z,6.65
2022-10-19T15:03:05.077Z,8.25
2022-10-19T15:05:33.265Z,7.53
2022-10-19T15:08:06.443Z,8.48
2022-10-19T15:10:43.160Z,9.32
2022-10-19T15:13:16.619Z,7.75
2022-10-19T15:15:43.165Z,7.28
2022-10-19T15:18:25.332Z,7.78
2022-10-19T15:21:11.733Z,9.32
2022-10-19T15:23:43.092Z,10.07
2022-10-19T15:26:28.493Z,6.72
2022-10-19T15:29:06.481Z,9.23
2022-10-19T15:31:32.732Z,7.70
2022-10-19T15:34:00.569Z,8.70
2022-10-19T15:36:27.430Z,12.18
2022-10-19T15:39:18.359Z,7.45
2022-10-19T15:41:51.236Z,9.43
2022-10-19T15:44:34.194Z,9.88
2022-10-19T15:47:16.084Z,5.97
2022-10-19T15:49:42.391Z,9.90
2022-10-19T15:52:17.847Z,6.00
2022-10-19T15:54:47.073Z,11.57
2022-10-19T15:57:32.405Z,8.85
2022-10-19T16:00:00.717Z,10.75
2022-10-19T16:02:26.992Z,16.13
2022-10-19T16:04:53.992Z,4.75
2022-10-19T16:07:30.608Z,9.00
2022-10-19T16:09:57.270Z,11.32
2022-10-19T16:12:24.013Z,6.53
2022-10-19T16:14:50.814Z,9.02
2022-10-19T16:17:17.075Z,8.55
2022-10-19T16:19:43.767Z,10.98
2022-10-19T16:22:10.622Z,10.65
2022-10-19T16:24:37.027Z,11.77
2022-10-19T16:27:03.469Z,10.77
2022-10-19T16:29:29.787Z,16.63
2022-10-19T16:31:56.076Z,9.20
2022-10-19T16:34:22.357Z,10.38
2022-10-19T16:36:48.625Z,8.82
2022-10-19T16:39:14.880Z,13.93
2022-10-19T16:41:41.129Z,13.65
2022-10-19T16:44:07.444Z,10.68
2022-10-19T16:46:33.757Z,11.35
2022-10-19T16:49:00.081Z,16.38
2022-10-19T16:51:26.414Z,11.45
2022-10-19T16:53:56.943Z,10.18
2022-10-19T16:56:24.078Z,5.88
2022-10-19T16:58:52.705Z,6.47
2022-10-19T17:01:19.403Z,9.18
2022-10-19T17:03:46.651Z,13.07
2022-10-19T17:06:13.371Z,14.50
2022-10-19T17:09:02.699Z,16.77
2022-10-19T17:11:27.856Z,10.38
2022-10-19T17:13:55.229Z,11.98
2022-10-19T17:18:47.918Z,10.45
2022-10-19T17:21:15.861Z,9.48
2022-10-19T17:23:42.245Z,14.68
2022-10-19T17:26:08.756Z,11.63
2022-10-19T17:28:35.851Z,9.40
2022-10-19T17:31:03.140Z,7.68
2022-10-19T17:33:29.417Z,11.00
2022-10-19T17:35:55.678Z,10.73
2022-10-19T17:38:21.922Z,11.27
2022-10-19T17:40:48.189Z,13.02
2022-10-19T17:43:14.437Z,12.13
2022-10-19T17:45:40.745Z,10.10
2022-10-19T17:48:08.290Z,9.00
2022-10-19T17:50:34.559Z,7.20
2022-10-19T17:53:00.851Z,9.13
2022-10-19T17:55:29.222Z,6.85
2022-10-19T17:57:55.506Z,12.35
2022-10-19T18:00:21.899Z,14.20
2022-10-19T18:02:48.836Z,10.43
2022-10-19T18:05:15.371Z,12.80
2022-10-19T18:07:42.469Z,13.30
2022-10-19T18:10:09.084Z,11.55
2022-10-19T18:12:35.341Z,12.13
2022-10-19T18:15:01.616Z,8.93
2022-10-19T18:17:28.042Z,9.82
2022-10-19T18:19:54.284Z,11.18
2022-10-19T18:22:21.820Z,12.13
2022-10-19T18:24:49.444Z,8.98
2022-10-19T18:27:15.774Z,12.95
2022-10-19T18:29:42.056Z,9.55
2022-10-19T18:32:08.316Z,13.10
2022-10-19T18:34:34.636Z,19.67
2022-10-19T18:37:00.916Z,7.30
2022-10-19T18:39:27.270Z,7.75
2022-10-19T18:41:56.606Z,6.55
2022-10-19T18:44:27.283Z,10.65
2022-10-19T18:46:54.367Z,11.27
2022-10-19T18:49:20.829Z,8.32
2022-10-19T18:51:50.806Z,8.52
2022-10-19T18:54:21.099Z,6.97
2022-10-19T18:56:47.351Z,11.88
2022-10-19T18:59:14.898Z,17.95
2022-10-19T19:01:41.336Z,7.53
2022-10-19T19:04:09.033Z,9.25
2022-10-19T19:06:36.344Z,9.88
2022-10-19T19:09:04.597Z,17.70
2022-10-19T19:11:35.862Z,9.02
2022-10-19T19:14:11.810Z,8.85
2022-10-19T19:16:38.820Z,9.75
2022-10-19T19:19:07.399Z,11.25
2022-10-19T19:21:35.505Z,13.95
2022-10-19T19:24:02.633Z,12.30
2022-10-19T19:26:30.358Z,11.00
2022-10-19T19:28:57.539Z,12.32
2022-10-19T19:31:23.847Z,8.45
2022-10-19T19:33:53.114Z,14.48
2022-10-19T19:36:19.951Z,12.18
2022-10-19T19:38:47.310Z,26.50
2022-10-19T19:41:14.277Z,24.77
2022-10-19T19:43:41.499Z,19.33
2022-10-19T19:46:09.495Z,11.63
2022-10-19T19:48:36.580Z,15.60
2022-10-19T19:51:02.865Z,12.18
2022-10-19T19:53:29.299Z,10.02
2022-10-19T19:55:55.573Z,13.23
2022-10-19T19:58:22.829Z,10.35
2022-10-19T20:00:49.117Z,13.63
2022-10-19T20:03:16.385Z,7.57
2022-10-19T20:05:42.672Z,6.70
2022-10-19T20:08:09.330Z,12.68
2022-10-19T20:10:38.101Z,12.10
2022-10-19T20:15:38.726Z,8.20
2022-10-19T20:18:07.620Z,10.68
2022-10-19T20:20:34.360Z,10.77
2022-10-19T20:23:01.634Z,10.82
2022-10-19T20:25:27.899Z,9.52
2022-10-19T20:27:54.152Z,8.63
2022-10-19T20:30:20.446Z,9.35
2022-10-19T20:32:46.724Z,7.75
2022-10-19T20:35:12.958Z,9.18
2022-10-19T20:37:39.461Z,13.45
2022-10-19T20:40:08.713Z,15.90
2022-10-19T20:42:35.437Z,12.65
2022-10-19T20:45:01.975Z,11.68
2022-10-19T20:47:28.268Z,11.02
2022-10-19T20:49:54.547Z,11.05
2022-10-19T20:52:20.858Z,12.68
2022-10-19T20:54:47.806Z,12.15
2022-10-19T20:57:14.031Z,8.18
2022-10-19T20:59:40.308Z,11.95
2022-10-19T21:02:06.941Z,12.65
2022-10-19T21:04:34.341Z,14.40
2022-10-19T21:07:04.308Z,7.68
2022-10-19T21:09:30.643Z,13.93
2022-10-19T21:11:56.958Z,11.70
2022-10-19T21:14:27.195Z,14.70
2022-10-19T21:16:56.537Z,10.57
2022-10-19T21:19:25.116Z,8.40
2022-10-19T21:21:55.328Z,9.23
2022-10-19T21:24:22.850Z,11.48
2022-10-19T21:29:15.986Z,10.38
2022-10-19T21:31:46.398Z,7.88
2022-10-19T21:34:16.781Z,13.32
2022-10-19T21:36:43.143Z,9.25
2022-10-19T21:39:09.427Z,8.10
2022-10-19T21:41:36.057Z,11.60
2022-10-19T21:44:08.594Z,11.40
2022-10-19T21:46:34.864Z,11.60
2022-10-19T21:49:01.199Z,9.02
2022-10-19T21:51:32.451Z,12.13
2022-10-19T21:53:59.085Z,8.75
2022-10-19T21:56:25.425Z,9.63
2022-10-19T21:58:53.356Z,9.35
2022-10-19T22:01:20.630Z,11.73
2022-10-19T22:03:46.923Z,17.33
2022-10-19T22:06:13.621Z,15.07
2022-10-19T22:08:40.862Z,9.95
2022-10-19T22:11:07.947Z,13.90
2022-10-19T22:13:35.092Z,17.70
2022-10-19T22:16:04.995Z,20.17
2022-10-19T22:18:31.383Z,15.90
2022-10-19T22:21:01.152Z,9.30
2022-10-19T22:23:27.398Z,13.65
2022-10-19T22:25:54.653Z,7.82
2022-10-19T22:28:20.941Z,13.02
2022-10-19T22:30:57.124Z,11.68
2022-10-19T22:33:24.175Z,12.93
2022-10-19T22:35:57.000Z,15.60
2022-10-19T22:38:23.745Z,10.48
2022-10-19T22:41:27.787Z,9.73
2022-10-19T22:43:54.023Z,10.45
2022-10-19T22:46:20.322Z,11.57
2022-10-19T22:48:46.578Z,12.18
2022-10-19T22:51:12.974Z,9.10
2022-10-19T22:53:39.232Z,13.25
2022-10-19T22:56:05.642Z,12.15
2022-10-19T22:58:31.937Z,8.35
2022-10-19T23:01:02.174Z,9.10
2022-10-19T23:03:28.569Z,13.45
2022-10-19T23:05:54.819Z,8.93
2022-10-19T23:08:21.102Z,16.95
2022-10-19T23:10:47.361Z,10.70
2022-10-19T23:13:15.111Z,22.25
2022-10-19T23:15:43.937Z,14.50
2022-10-19T23:18:11.704Z,15.02
2022-10-19T23:23:04.168Z,13.30
2022-10-19T23:28:01.976Z,9.52
2022-10-19T23:30:28.259Z,10.82
2022-10-19T23:32:54.536Z,10.63
2022-10-19T23:35:26.717Z,8.45
2022-10-19T23:37:52.944Z,9.27
2022-10-19T23:40:19.225Z,9.23
2022-10-19T23:42:45.466Z,8.82
2022-10-19T23:45:13.103Z,11.80
2022-10-19T23:47:39.365Z,10.15
2022-10-19T23:50:05.844Z,12.48
2022-10-19T23:52:32.082Z,13.52
2022-10-19T23:54:58.333Z,12.90
2022-10-19T23:57:25.577Z,9.73
2022-10-19T23:59:51.893Z,9.15
